Aguilar, Colorado
Current Conditions -  °F | °C
As of 8:54 AM on Tuesday 21 Oct 2014 (Local Time) from KTAD Reporting Station
Clear Clear  
Wind Chill: 59°   Ceiling: Unl
Heat Index: 59°   Visibility: 10mi
Dew Point: 42°   Wind: 5mph
Humidity: 53%   Direction: 300°WNW
Pressure: 30.13"   Gusts: NA
Location:  37.4°N, 104.65°W
Report Text: KTAD 211454Z AUTO 30004KT 10SM CLR 15/06 A3013 RMK AO2 SLP151 T01500056 53003
Loading
Personal Weather Stations






























Interactive Weather Map New forecast layout! Learn more

10-Day Weather Forecast

Advertisements
Track Severe Weather on mobile